createdAt,value
2022-08-22T00:02:03.790Z,2.42
2022-08-22T00:02:43.020Z,2.65
2022-08-22T00:02:49.988Z,2.30
2022-08-22T00:03:11.355Z,2.50
2022-08-22T00:04:38.184Z,2.38
2022-08-22T00:07:19.740Z,2.30
2022-08-22T00:09:55.165Z,2.40
2022-08-22T00:12:36.426Z,2.33
2022-08-22T00:15:31.691Z,3.13
2022-08-22T00:18:05.693Z,2.20
2022-08-22T00:20:39.759Z,2.53
2022-08-22T00:23:17.448Z,2.47
2022-08-22T00:25:53.472Z,2.20
2022-08-22T00:28:25.729Z,2.67
2022-08-22T00:31:12.420Z,2.55
2022-08-22T00:33:45.976Z,2.33
2022-08-22T00:36:24.427Z,2.53
2022-08-22T00:39:03.939Z,2.42
2022-08-22T00:42:00.737Z,2.33
2022-08-22T00:45:04.026Z,2.67
2022-08-22T00:47:52.419Z,2.72
2022-08-22T00:50:46.053Z,2.25
2022-08-22T00:53:31.723Z,2.60
2022-08-22T00:56:24.535Z,2.50
2022-08-22T00:59:23.818Z,2.60
2022-08-22T01:01:57.635Z,2.70
2022-08-22T01:04:48.568Z,2.20
2022-08-22T01:07:38.179Z,2.80
2022-08-22T01:10:23.923Z,2.65
2022-08-22T01:13:07.436Z,3.08
2022-08-22T01:15:39.646Z,2.50
2022-08-22T01:18:44.324Z,3.20
2022-08-22T01:21:44.488Z,2.60
2022-08-22T01:25:07.687Z,2.80
2022-08-22T01:28:06.772Z,2.75
2022-08-22T01:30:54.117Z,2.85
2022-08-22T01:33:53.946Z,2.80
2022-08-22T01:36:47.335Z,3.58
2022-08-22T01:39:39.354Z,3.05
2022-08-22T01:42:23.602Z,3.35
2022-08-22T01:45:05.056Z,3.35
2022-08-22T01:47:38.988Z,3.17
2022-08-22T01:50:18.349Z,3.17
2022-08-22T01:52:51.208Z,3.58
2022-08-22T01:55:32.826Z,3.65
2022-08-22T01:58:03.583Z,4.00
2022-08-22T02:00:35.916Z,3.80
2022-08-22T02:05:54.023Z,3.58
2022-08-22T02:08:37.641Z,4.20
2022-08-22T02:11:10.505Z,4.10
2022-08-22T02:13:51.336Z,4.28
2022-08-22T02:16:26.904Z,3.90
2022-08-22T02:19:06.371Z,4.22
2022-08-22T02:21:44.674Z,4.20
2022-08-22T02:24:28.727Z,3.67
2022-08-22T02:27:12.924Z,3.60
2022-08-22T02:29:46.416Z,3.40
2022-08-22T02:32:21.533Z,3.70
2022-08-22T02:34:58.694Z,4.03
2022-08-22T02:37:35.786Z,3.78
2022-08-22T02:40:12.891Z,4.50
2022-08-22T02:42:46.190Z,4.50
2022-08-22T02:45:24.984Z,3.55
2022-08-22T02:47:59.575Z,3.83
2022-08-22T02:50:35.544Z,4.30
2022-08-22T02:53:09.375Z,4.60
2022-08-22T02:55:49.107Z,4.63
2022-08-22T02:58:24.281Z,4.15
2022-08-22T03:01:10.080Z,4.50
2022-08-22T03:03:40.790Z,4.57
2022-08-22T03:06:34.920Z,4.10
2022-08-22T03:09:09.664Z,3.88
2022-08-22T03:11:43.260Z,4.03
2022-08-22T03:14:20.039Z,3.97
2022-08-22T03:17:23.451Z,4.10
2022-08-22T03:20:00.302Z,3.65
2022-08-22T03:22:36.532Z,3.70
2022-08-22T03:25:13.482Z,4.10
2022-08-22T03:27:49.866Z,4.10
2022-08-22T03:30:22.827Z,4.00
2022-08-22T03:32:59.077Z,3.92
2022-08-22T03:35:36.297Z,4.05
2022-08-22T03:38:21.291Z,4.38
2022-08-22T03:41:11.705Z,4.43
2022-08-22T03:44:05.080Z,4.80
2022-08-22T03:46:55.981Z,4.00
2022-08-22T03:49:59.494Z,3.80
2022-08-22T03:53:18.718Z,3.88
2022-08-22T03:56:22.629Z,4.00
2022-08-22T03:59:19.354Z,3.70
2022-08-22T04:02:24.645Z,3.88
2022-08-22T04:05:15.213Z,4.43
2022-08-22T04:08:28.997Z,3.42
2022-08-22T04:11:26.864Z,3.85
2022-08-22T04:14:25.448Z,3.42
2022-08-22T04:17:14.498Z,3.35
2022-08-22T04:20:16.654Z,3.70
2022-08-22T04:23:21.970Z,3.53
2022-08-22T04:25:54.299Z,3.90
2022-08-22T04:28:31.095Z,3.70
2022-08-22T04:31:08.205Z,3.90
2022-08-22T04:33:44.824Z,3.35
2022-08-22T04:36:20.902Z,3.70
2022-08-22T04:38:54.293Z,3.47
2022-08-22T04:41:25.737Z,3.92
2022-08-22T04:43:58.932Z,3.80
2022-08-22T04:46:36.958Z,3.90
2022-08-22T04:49:09.006Z,3.60
2022-08-22T04:51:40.216Z,3.93
2022-08-22T04:54:25.588Z,3.42
2022-08-22T04:57:07.997Z,3.35
2022-08-22T04:59:39.208Z,3.63
2022-08-22T05:02:12.140Z,3.67
2022-08-22T05:04:42.868Z,3.22
2022-08-22T05:07:14.697Z,3.40
2022-08-22T05:09:49.591Z,3.53
2022-08-22T05:12:29.290Z,3.45
2022-08-22T05:15:06.105Z,3.67
2022-08-22T05:17:41.471Z,3.70
2022-08-22T05:20:13.345Z,3.45
2022-08-22T05:22:44.545Z,3.67
2022-08-22T05:25:15.318Z,3.60
2022-08-22T05:27:47.124Z,3.53
2022-08-22T05:30:24.678Z,3.28
2022-08-22T05:32:59.121Z,3.60
2022-08-22T05:35:36.334Z,3.80
2022-08-22T05:38:05.790Z,3.78
2022-08-22T05:40:35.699Z,3.40
2022-08-22T05:43:07.525Z,3.72
2022-08-22T05:45:38.390Z,3.65
2022-08-22T05:48:13.355Z,4.10
2022-08-22T05:50:50.422Z,3.75
2022-08-22T05:53:29.734Z,4.00
2022-08-22T05:56:06.051Z,3.92
2022-08-22T05:58:50.727Z,3.67
2022-08-22T06:01:31.634Z,3.88
2022-08-22T06:04:09.733Z,3.70
2022-08-22T06:06:44.960Z,3.75
2022-08-22T06:09:20.510Z,4.28
2022-08-22T06:11:57.228Z,3.63
2022-08-22T06:14:32.722Z,4.05
2022-08-22T06:17:10.248Z,3.67
2022-08-22T06:19:44.436Z,3.90
2022-08-22T06:22:16.483Z,3.65
2022-08-22T06:24:51.705Z,3.90
2022-08-22T06:27:24.063Z,4.00
2022-08-22T06:32:44.448Z,4.03
2022-08-22T06:37:48.881Z,3.50
2022-08-22T06:40:18.817Z,3.67
2022-08-22T06:42:50.021Z,3.85
2022-08-22T06:45:23.088Z,3.83
2022-08-22T06:48:01.137Z,3.90
2022-08-22T06:50:33.346Z,3.83
2022-08-22T06:53:06.846Z,4.10
2022-08-22T06:55:39.255Z,3.88
2022-08-22T06:58:12.894Z,3.85
2022-08-22T07:00:43.727Z,3.95
2022-08-22T07:03:17.278Z,4.07
2022-08-22T07:05:46.890Z,3.50
2022-08-22T07:08:20.529Z,3.75
2022-08-22T07:11:05.581Z,3.70
2022-08-22T07:13:36.784Z,3.60
2022-08-22T07:16:08.385Z,3.90
2022-08-22T07:18:48.175Z,3.65
2022-08-22T07:21:28.434Z,3.78
2022-08-22T07:24:00.938Z,3.78
2022-08-22T07:26:34.659Z,3.88
2022-08-22T07:29:11.216Z,4.07
2022-08-22T07:31:43.693Z,4.20
2022-08-22T07:34:35.797Z,4.30
2022-08-22T07:37:08.600Z,4.30
2022-08-22T07:39:39.593Z,3.92
2022-08-22T07:42:14.569Z,3.90
2022-08-22T07:44:58.027Z,4.10
2022-08-22T07:47:31.819Z,4.00
2022-08-22T07:50:03.837Z,4.18
2022-08-22T07:52:41.375Z,4.03
2022-08-22T07:55:18.875Z,3.83
2022-08-22T07:57:53.203Z,3.90
2022-08-22T08:00:25.270Z,3.60
2022-08-22T08:05:24.017Z,4.03
2022-08-22T08:07:56.288Z,3.95
2022-08-22T08:10:28.558Z,3.60
2022-08-22T08:13:02.314Z,3.97
2022-08-22T08:15:32.870Z,4.13
2022-08-22T08:18:05.471Z,3.80
2022-08-22T08:20:38.728Z,4.13
2022-08-22T08:23:12.112Z,3.53
2022-08-22T08:26:10.059Z,4.50
2022-08-22T08:28:41.286Z,4.07
2022-08-22T08:31:16.174Z,3.90
2022-08-22T08:33:48.524Z,4.07
2022-08-22T08:36:36.499Z,4.18
2022-08-22T08:39:14.177Z,3.45
2022-08-22T08:42:30.771Z,4.10
2022-08-22T08:45:46.220Z,3.95
2022-08-22T08:48:43.034Z,4.10
2022-08-22T08:51:26.346Z,4.30
2022-08-22T08:54:26.277Z,4.20
2022-08-22T08:57:00.854Z,4.00
2022-08-22T08:59:44.441Z,4.00
2022-08-22T09:02:38.512Z,4.03
2022-08-22T09:05:37.822Z,3.83
2022-08-22T09:08:30.563Z,4.78
2022-08-22T09:11:35.766Z,4.25
2022-08-22T09:14:21.380Z,4.10
2022-08-22T09:17:08.564Z,3.97
2022-08-22T09:20:02.315Z,3.72
2022-08-22T09:23:36.033Z,4.15
2022-08-22T09:26:13.076Z,3.88
2022-08-22T09:28:49.840Z,3.42
2022-08-22T09:31:47.796Z,3.70
2022-08-22T09:37:22.353Z,4.53
2022-08-22T09:40:16.642Z,4.20
2022-08-22T09:40:17.027Z,4.07
2022-08-22T09:43:06.285Z,4.53
2022-08-22T09:45:45.429Z,4.32
2022-08-22T09:48:31.724Z,3.83
2022-08-22T09:51:31.833Z,4.18
2022-08-22T09:54:16.152Z,4.15
2022-08-22T09:57:01.820Z,4.53
2022-08-22T09:59:45.588Z,4.28
2022-08-22T10:02:42.083Z,4.10
2022-08-22T10:05:38.485Z,4.68
2022-08-22T10:08:19.745Z,4.35
2022-08-22T10:11:08.964Z,3.80
2022-08-22T10:13:47.954Z,4.18
2022-08-22T10:16:43.647Z,4.20
2022-08-22T10:19:18.820Z,4.07
2022-08-22T10:22:15.396Z,4.50
2022-08-22T10:24:49.141Z,4.18
2022-08-22T10:27:25.245Z,4.18
2022-08-22T10:30:08.173Z,3.70
2022-08-22T10:32:43.531Z,3.80
2022-08-22T10:35:26.407Z,3.90
2022-08-22T10:37:58.159Z,3.97
2022-08-22T10:43:01.456Z,4.05
2022-08-22T10:45:36.336Z,3.55
2022-08-22T10:48:33.613Z,3.75
2022-08-22T10:53:40.530Z,3.58
2022-08-22T10:56:14.302Z,3.50
2022-08-22T10:58:50.303Z,3.83
2022-08-22T11:05:17.215Z,3.20
2022-08-22T11:10:29.890Z,3.58
2022-08-22T11:13:14.076Z,3.58
2022-08-22T11:16:04.187Z,3.90
2022-08-22T11:18:57.937Z,3.13
2022-08-22T11:21:50.940Z,3.65
2022-08-22T11:24:56.281Z,3.58
2022-08-22T11:27:39.519Z,3.60
2022-08-22T11:30:18.779Z,3.30
2022-08-22T11:33:11.669Z,3.45
2022-08-22T11:35:45.375Z,3.47
2022-08-22T11:38:32.079Z,3.28
2022-08-22T11:41:03.742Z,3.53
2022-08-22T11:46:26.287Z,3.33
2022-08-22T11:49:26.823Z,3.30
2022-08-22T11:52:03.947Z,3.45
2022-08-22T11:54:54.433Z,3.13
2022-08-22T11:57:35.653Z,3.17
2022-08-22T12:00:14.154Z,2.80
2022-08-22T12:02:59.904Z,3.40
2022-08-22T12:05:34.108Z,3.03
2022-08-22T12:08:21.212Z,2.80
2022-08-22T12:11:07.693Z,3.28
2022-08-22T12:13:49.448Z,3.47
2022-08-22T12:18:56.031Z,3.00
2022-08-22T12:21:52.265Z,2.75
2022-08-22T12:24:43.375Z,2.97
2022-08-22T12:27:29.497Z,3.22
2022-08-22T12:30:13.935Z,2.80
2022-08-22T12:33:22.951Z,2.97
2022-08-22T12:36:02.169Z,2.75
2022-08-22T12:38:40.271Z,2.75
2022-08-22T12:41:38.308Z,2.47
2022-08-22T12:44:29.067Z,2.63
2022-08-22T12:47:18.006Z,2.90
2022-08-22T12:50:04.207Z,2.80
2022-08-22T12:52:54.564Z,2.70
2022-08-22T12:55:38.547Z,2.70
2022-08-22T12:58:13.779Z,2.38
2022-08-22T13:00:45.819Z,2.55
2022-08-22T13:03:25.801Z,2.30
2022-08-22T13:05:56.684Z,2.70
2022-08-22T13:08:30.667Z,2.83
2022-08-22T13:13:37.285Z,2.53
2022-08-22T13:16:11.554Z,2.60
2022-08-22T13:18:44.769Z,2.70
2022-08-22T13:21:16.618Z,3.08
2022-08-22T13:23:53.192Z,2.45
2022-08-22T13:26:32.940Z,2.60
2022-08-22T13:29:24.646Z,2.78
2022-08-22T13:31:58.963Z,2.67
2022-08-22T13:34:39.463Z,2.70
2022-08-22T13:37:12.623Z,3.15
2022-08-22T13:39:45.078Z,2.78
2022-08-22T13:42:30.779Z,2.55
2022-08-22T13:45:02.593Z,3.10
2022-08-22T13:47:35.424Z,3.22
2022-08-22T13:50:13.970Z,2.50
2022-08-22T13:52:52.303Z,2.70
2022-08-22T13:55:30.029Z,2.72
2022-08-22T13:58:02.777Z,2.88
2022-08-22T14:01:21.483Z,3.00
2022-08-22T14:03:57.863Z,2.72
2022-08-22T14:06:37.016Z,2.55
2022-08-22T14:09:15.117Z,3.13
2022-08-22T14:11:49.937Z,2.60
2022-08-22T14:14:25.184Z,2.92
2022-08-22T14:16:56.391Z,3.00
2022-08-22T14:19:52.898Z,2.53
2022-08-22T14:22:31.657Z,2.78
2022-08-22T14:25:03.595Z,2.67
2022-08-22T14:27:35.245Z,2.70
2022-08-22T14:32:44.955Z,2.85
2022-08-22T14:35:29.260Z,2.90
2022-08-22T14:38:27.420Z,2.55
2022-08-22T14:41:03.993Z,2.75
2022-08-22T14:43:50.816Z,2.60
2022-08-22T14:46:34.065Z,2.75
2022-08-22T14:49:26.910Z,2.67
2022-08-22T14:52:03.902Z,2.97
2022-08-22T14:54:40.350Z,2.92
2022-08-22T14:57:20.228Z,2.65
2022-08-22T14:59:51.329Z,2.90
2022-08-22T15:02:29.240Z,3.00
2022-08-22T15:05:01.462Z,2.58
2022-08-22T15:07:33.683Z,2.60
2022-08-22T15:10:06.512Z,2.97
2022-08-22T15:12:38.495Z,2.83
2022-08-22T15:15:11.383Z,2.83
2022-08-22T15:17:44.052Z,2.78
2022-08-22T15:22:46.756Z,2.80
2022-08-22T15:25:17.996Z,2.85
2022-08-22T15:27:50.211Z,3.00
2022-08-22T15:30:21.078Z,2.60
2022-08-22T15:32:50.004Z,3.10
2022-08-22T15:35:29.939Z,2.92
2022-08-22T15:38:01.789Z,2.60
2022-08-22T15:40:34.899Z,2.63
2022-08-22T15:43:22.179Z,3.00
2022-08-22T15:45:52.910Z,2.78
2022-08-22T15:48:31.035Z,2.40
2022-08-22T15:51:02.441Z,2.58
2022-08-22T15:53:53.221Z,2.60
2022-08-22T15:56:27.147Z,2.45
2022-08-22T15:59:21.050Z,3.03
2022-08-22T16:01:53.015Z,2.70
2022-08-22T16:04:37.343Z,2.80
2022-08-22T16:07:22.643Z,2.83
2022-08-22T16:09:54.186Z,2.92
2022-08-22T16:12:33.524Z,3.10
2022-08-22T16:15:05.156Z,2.65
2022-08-22T16:17:53.428Z,2.58
2022-08-22T16:20:47.368Z,2.65
2022-08-22T16:23:15.138Z,2.97
2022-08-22T16:26:10.982Z,2.75
2022-08-22T16:28:59.073Z,2.53
2022-08-22T16:31:31.349Z,2.53
2022-08-22T16:34:20.274Z,2.50
2022-08-22T16:37:10.393Z,2.58
2022-08-22T16:39:40.831Z,2.60
2022-08-22T16:42:34.733Z,2.50
2022-08-22T16:45:17.029Z,2.58
2022-08-22T16:47:52.703Z,2.78
2022-08-22T16:50:36.431Z,2.88
2022-08-22T16:53:11.097Z,2.42
2022-08-22T16:55:49.155Z,3.10
2022-08-22T16:58:56.553Z,2.58
2022-08-22T17:01:37.486Z,2.50
2022-08-22T17:04:15.549Z,3.42
2022-08-22T17:06:56.385Z,2.40
2022-08-22T17:09:45.784Z,2.50
2022-08-22T17:15:07.898Z,2.55
2022-08-22T17:17:48.210Z,2.53
2022-08-22T17:20:21.806Z,3.03
2022-08-22T17:22:58.027Z,3.22
2022-08-22T17:25:34.941Z,3.20
2022-08-22T17:28:19.937Z,2.38
2022-08-22T17:31:01.007Z,2.42
2022-08-22T17:33:53.786Z,2.38
2022-08-22T17:36:30.768Z,2.50
2022-08-22T17:39:07.544Z,5.45
2022-08-22T17:41:45.358Z,2.78
2022-08-22T17:44:20.408Z,2.92
2022-08-22T17:46:55.463Z,3.10
2022-08-22T17:49:31.130Z,2.67
2022-08-22T17:52:06.371Z,3.35
2022-08-22T17:54:40.405Z,2.67
2022-08-22T17:57:13.216Z,2.40
2022-08-22T17:59:49.372Z,2.58
2022-08-22T18:02:24.835Z,2.83
2022-08-22T18:05:02.930Z,2.90
2022-08-22T18:07:39.368Z,3.10
2022-08-22T18:10:19.619Z,3.05
2022-08-22T18:13:01.414Z,3.78
2022-08-22T18:15:41.021Z,2.70
2022-08-22T18:18:19.743Z,3.10
2022-08-22T18:20:54.375Z,3.22
2022-08-22T18:23:35.717Z,2.58
2022-08-22T18:26:21.132Z,2.78
2022-08-22T18:28:57.389Z,2.70
2022-08-22T18:31:38.464Z,2.85
2022-08-22T18:34:21.902Z,2.65
2022-08-22T18:36:57.133Z,3.50
2022-08-22T18:39:30.149Z,2.80
2022-08-22T18:42:05.384Z,2.70
2022-08-22T18:44:39.919Z,3.00
2022-08-22T18:47:15.057Z,2.70
2022-08-22T18:49:54.112Z,3.20
2022-08-22T18:52:41.258Z,2.53
2022-08-22T18:55:48.155Z,2.83
2022-08-22T18:58:39.272Z,2.72
2022-08-22T19:01:42.038Z,2.53
2022-08-22T19:04:39.852Z,2.90
2022-08-22T19:07:27.124Z,2.70
2022-08-22T19:10:13.928Z,2.58
2022-08-22T19:12:57.155Z,3.10
2022-08-22T19:15:36.282Z,2.78
2022-08-22T19:18:21.016Z,2.65
2022-08-22T19:21:37.751Z,2.70
2022-08-22T19:24:09.981Z,3.05
2022-08-22T19:29:52.612Z,3.42
2022-08-22T19:32:59.043Z,3.00
2022-08-22T19:35:31.802Z,3.20
2022-08-22T19:38:01.717Z,3.28
2022-08-22T19:40:54.215Z,3.03
2022-08-22T19:43:31.835Z,3.53
2022-08-22T19:46:01.613Z,3.33
2022-08-22T19:48:32.097Z,2.95
2022-08-22T19:51:16.808Z,3.17
2022-08-22T19:53:58.479Z,3.28
2022-08-22T19:56:41.088Z,4.07
2022-08-22T19:59:26.728Z,3.67
2022-08-22T20:02:02.171Z,3.25
2022-08-22T20:05:12.284Z,2.88
2022-08-22T20:07:57.514Z,3.17
2022-08-22T20:10:37.013Z,3.20
2022-08-22T20:13:11.745Z,3.22
2022-08-22T20:16:07.133Z,3.03
2022-08-22T20:19:13.916Z,3.22
2022-08-22T20:21:47.278Z,3.20
2022-08-22T20:24:21.670Z,3.35
2022-08-22T20:27:12.668Z,3.50
2022-08-22T20:29:46.371Z,3.83
2022-08-22T20:32:17.609Z,3.78
2022-08-22T20:34:48.176Z,3.20
2022-08-22T20:37:32.437Z,3.40
2022-08-22T20:40:56.737Z,3.00
2022-08-22T20:43:25.235Z,3.45
2022-08-22T20:46:08.114Z,3.40
2022-08-22T20:48:43.833Z,3.58
2022-08-22T20:51:15.685Z,3.50
2022-08-22T20:53:51.050Z,3.45
2022-08-22T20:56:33.013Z,3.50
2022-08-22T20:59:01.409Z,3.65
2022-08-22T21:01:32.190Z,3.30
2022-08-22T21:04:00.932Z,2.92
2022-08-22T21:06:34.992Z,3.25
2022-08-22T21:09:30.861Z,3.65
2022-08-22T21:12:00.022Z,3.05
2022-08-22T21:14:33.553Z,3.72
2022-08-22T21:17:21.504Z,3.30
2022-08-22T21:19:49.465Z,3.30
2022-08-22T21:22:19.503Z,2.83
2022-08-22T21:24:47.269Z,2.90
2022-08-22T21:27:24.393Z,3.30
2022-08-22T21:29:52.353Z,3.05
2022-08-22T21:32:27.493Z,3.20
2022-08-22T21:34:55.747Z,3.20
2022-08-22T21:37:34.878Z,3.10
2022-08-22T21:40:08.382Z,2.95
2022-08-22T21:42:45.250Z,3.05
2022-08-22T21:45:27.047Z,3.00
2022-08-22T21:47:58.258Z,2.97
2022-08-22T21:50:34.518Z,3.10
2022-08-22T21:53:10.104Z,3.22
2022-08-22T21:55:47.906Z,3.15
2022-08-22T21:58:36.941Z,2.97
2022-08-22T22:01:29.979Z,3.05
2022-08-22T22:04:00.812Z,3.50
2022-08-22T22:06:28.630Z,3.60
2022-08-22T22:08:56.668Z,3.05
2022-08-22T22:11:24.509Z,3.00
2022-08-22T22:13:52.325Z,3.35
2022-08-22T22:16:27.932Z,3.25
2022-08-22T22:18:57.146Z,3.65
2022-08-22T22:21:26.248Z,3.10
2022-08-22T22:23:53.972Z,3.20
2022-08-22T22:28:54.422Z,3.50
2022-08-22T22:31:22.140Z,3.10
2022-08-22T22:33:49.843Z,3.25
2022-08-22T22:36:22.682Z,3.30
2022-08-22T22:38:52.379Z,3.55
2022-08-22T22:41:23.379Z,3.35
2022-08-22T22:43:51.178Z,3.60
2022-08-22T22:46:18.900Z,3.90
2022-08-22T22:48:46.631Z,3.60
2022-08-22T22:51:14.599Z,3.50
2022-08-22T22:53:43.689Z,3.38
2022-08-22T22:56:15.907Z,3.25
2022-08-22T23:01:13.445Z,3.30
2022-08-22T23:03:41.220Z,3.50
2022-08-22T23:06:11.810Z,3.28
2022-08-22T23:08:39.690Z,3.65
2022-08-22T23:11:12.445Z,3.33
2022-08-22T23:13:42.940Z,3.50
2022-08-22T23:16:13.584Z,3.40
2022-08-22T23:18:41.362Z,3.72
2022-08-22T23:21:14.029Z,3.75
2022-08-22T23:23:42.194Z,3.35
2022-08-22T23:26:10.564Z,3.80
2022-08-22T23:28:40.288Z,3.60
2022-08-22T23:31:13.492Z,4.05
2022-08-22T23:33:41.575Z,3.80
2022-08-22T23:36:12.128Z,3.63
2022-08-22T23:38:40.226Z,3.85
2022-08-22T23:41:10.071Z,3.40
2022-08-22T23:43:43.268Z,3.50
2022-08-22T23:46:11.477Z,3.72
2022-08-22T23:48:39.302Z,4.35
2022-08-22T23:51:08.046Z,3.58
2022-08-22T23:53:36.218Z,3.83
2022-08-22T23:56:10.582Z,3.88
2022-08-22T23:58:49.589Z,3.72
